Time;durP1;ratioP1;P1;durP2;ratioP2;P2;SDS_P1;SDS_P2;PMS_P1;PMS_P2;Temp;Humidity;BMP_temperature;BMP_pressure;BME280_temperature;BME280_humidity;BME280_pressure;Samples;Min_cycle;Max_cycle;Signal;HPM_P1;HPM_P2
2023/10/01 00:01:33;;;;;;;92.65;88.45;;;;;;;18.75;56.96;102326.34;4973055;28;20039;-67
2023/10/01 00:03:58;;;;;;;100.85;95.88;;;;;;;18.75;56.98;102328.22;4953974;28;20059;-66
2023/10/01 00:06:25;;;;;;;96.80;92.40;;;;;;;18.74;57.44;102337.50;4961526;28;20090;-66
2023/10/01 00:08:50;;;;;;;98.65;93.78;;;;;;;18.72;56.95;102329.56;4972992;28;20035;-66
2023/10/01 00:11:16;;;;;;;94.68;90.40;;;;;;;18.72;57.49;102326.00;4972019;28;20035;-66
2023/10/01 00:13:41;;;;;;;96.50;91.85;;;;;;;18.70;57.50;102323.53;4972449;28;20042;-66
2023/10/01 00:16:06;;;;;;;92.32;88.03;;;;;;;18.70;57.02;102336.41;4971583;28;20035;-66
2023/10/01 00:18:32;;;;;;;93.63;89.38;;;;;;;18.67;57.10;102332.25;4972709;28;20197;-66
2023/10/01 00:20:58;;;;;;;92.55;88.05;;;;;;;18.67;57.36;102331.41;4972680;28;20118;-66
2023/10/01 00:23:23;;;;;;;92.95;88.63;;;;;;;18.65;57.30;102328.09;4973157;28;20090;-66
2023/10/01 00:25:49;;;;;;;95.65;91.00;;;;;;;18.64;56.96;102332.75;4971815;28;20483;-66
2023/10/01 00:28:15;;;;;;;98.43;93.85;;;;;;;18.63;57.35;102333.03;4973016;28;20054;-66
2023/10/01 00:30:41;;;;;;;91.28;86.78;;;;;;;18.62;57.41;102325.88;4972916;28;20042;-66
2023/10/01 00:33:10;;;;;;;94.32;89.82;;;;;;;18.60;57.31;102323.44;4972116;28;20545;-67
2023/10/01 00:35:40;;;;;;;93.68;89.38;;;;;;;18.58;57.46;102315.47;4954185;28;20042;-66
2023/10/01 00:38:07;;;;;;;94.78;90.07;;;;;;;18.58;57.38;102326.41;4953812;28;20448;-66
2023/10/01 00:40:32;;;;;;;93.95;89.38;;;;;;;18.57;57.04;102318.44;4952942;28;20039;-66
2023/10/01 00:42:58;;;;;;;95.13;90.65;;;;;;;18.54;57.08;102318.97;4953112;28;20460;-66
2023/10/01 00:45:23;;;;;;;92.03;87.68;;;;;;;18.53;57.42;102318.16;4953686;28;20039;-66
2023/10/01 00:47:51;;;;;;;96.22;91.43;;;;;;;18.52;57.46;102316.50;4953501;28;20038;-69
2023/10/01 00:50:22;;;;;;;91.70;87.28;;;;;;;18.51;56.93;102314.84;4969555;28;20038;-66
2023/10/01 00:52:52;;;;;;;94.32;90.05;;;;;;;18.49;57.22;102307.97;4972717;28;20034;-66
2023/10/01 00:55:20;;;;;;;93.85;89.10;;;;;;;18.47;57.25;102300.03;4972380;28;20379;-66
2023/10/01 00:57:46;;;;;;;97.72;93.03;;;;;;;18.46;56.97;102297.56;4972486;28;20351;-67
2023/10/01 01:00:19;;;;;;;94.68;90.28;;;;;;;18.45;57.01;102294.00;4972351;28;20030;-66
2023/10/01 01:02:56;;;;;;;90.82;86.45;;;;;;;18.44;56.90;102284.13;4972363;28;20035;-66
2023/10/01 01:05:23;;;;;;;91.07;86.38;;;;;;;18.43;57.39;102278.91;4972516;28;20045;-66
2023/10/01 01:07:50;;;;;;;90.90;86.50;;;;;;;18.41;56.94;102281.09;4971840;28;20046;-67
2023/10/01 01:10:18;;;;;;;93.85;89.30;;;;;;;18.41;56.91;102275.59;4971988;28;20068;-66
2023/10/01 01:12:45;;;;;;;93.43;89.10;;;;;;;18.38;57.40;102269.56;4971655;28;20573;-66
2023/10/01 01:15:15;;;;;;;95.68;91.30;;;;;;;18.36;56.99;102263.53;4972414;28;20037;-67
2023/10/01 01:17:41;;;;;;;92.60;88.32;;;;;;;18.36;57.22;102268.16;4971704;28;20034;-67
2023/10/01 01:20:09;;;;;;;92.97;88.47;;;;;;;18.35;56.95;102274.75;4972083;28;20486;-67
2023/10/01 01:22:37;;;;;;;94.82;90.50;;;;;;;18.33;56.98;102271.44;4971602;28;20035;-67
2023/10/01 01:25:10;;;;;;;96.32;91.75;;;;;;;18.33;57.27;102268.69;4971790;28;20069;-67
2023/10/01 01:27:40;;;;;;;90.07;85.97;;;;;;;18.31;57.39;102255.25;4972432;28;20057;-67
2023/10/01 01:30:17;;;;;;;90.40;85.93;;;;;;;18.30;57.21;102256.34;4971344;28;20027;-67
2023/10/01 01:32:42;;;;;;;93.97;89.78;;;;;;;18.30;57.25;102255.53;4972474;28;20046;-66
2023/10/01 01:35:10;;;;;;;93.70;89.20;;;;;;;18.28;57.33;102263.16;4972233;28;20035;-67
2023/10/01 01:37:47;;;;;;;92.85;88.65;;;;;;;18.27;57.41;102256.88;4972151;28;20062;-66
2023/10/01 01:40:23;;;;;;;91.90;87.40;;;;;;;18.25;56.80;102264.50;4970422;28;20458;-66
2023/10/01 01:42:50;;;;;;;91.30;86.82;;;;;;;18.25;56.94;102266.44;4972177;28;20039;-67
2023/10/01 01:45:18;;;;;;;90.53;86.43;;;;;;;18.23;57.33;102261.19;4971758;28;20063;-66
2023/10/01 01:47:44;;;;;;;89.97;85.95;;;;;;;18.21;57.32;102251.59;4972048;28;20038;-66
2023/10/01 01:50:21;;;;;;;90.78;86.00;;;;;;;18.21;57.18;102254.34;4971574;28;20042;-66
2023/10/01 01:52:49;;;;;;;90.47;86.13;;;;;;;18.19;57.28;102251.03;4971645;28;20031;-66
2023/10/01 01:55:34;;;;;;;92.15;87.30;;;;;;;18.16;57.00;102241.44;4971773;28;20414;-67
2023/10/01 01:58:09;;;;;;;89.03;85.03;;;;;;;18.16;57.17;102246.91;4970970;28;20122;-67
2023/10/01 02:00:37;;;;;;;89.20;85.10;;;;;;;18.14;57.06;102244.44;4971954;28;20031;-68
2023/10/01 02:03:10;;;;;;;91.53;87.22;;;;;;;18.12;56.92;102241.13;4971723;28;20361;-68
2023/10/01 02:05:37;;;;;;;90.18;85.97;;;;;;;18.12;57.47;102243.88;4972080;28;20043;-68
2023/10/01 02:08:06;;;;;;;89.78;85.70;;;;;;;18.10;57.16;102235.09;4970987;28;20039;-68
2023/10/01 02:10:44;;;;;;;92.20;87.95;;;;;;;18.10;56.87;102246.03;4972094;28;20035;-67
2023/10/01 02:13:13;;;;;;;90.50;85.88;;;;;;;18.08;57.24;102245.44;4971414;28;20050;-67
2023/10/01 02:15:39;;;;;;;88.57;84.38;;;;;;;18.07;57.11;102229.31;4974003;28;20081;-67
2023/10/01 02:18:08;;;;;;;90.97;86.53;;;;;;;18.07;57.02;102243.00;4975126;28;20039;-67
2023/10/01 02:20:35;;;;;;;93.75;89.60;;;;;;;18.05;56.79;102236.94;4971295;28;20031;-67
2023/10/01 02:23:03;;;;;;;90.80;86.30;;;;;;;18.04;57.05;102236.13;4956495;28;20032;-67
2023/10/01 02:25:39;;;;;;;90.75;86.68;;;;;;;18.03;57.41;102234.47;4956274;28;20463;-68
2023/10/01 02:28:15;;;;;;;89.35;85.13;;;;;;;18.01;56.86;102242.09;4956093;28;20436;-67
2023/10/01 02:30:46;;;;;;;88.18;84.07;;;;;;;18.01;56.82;102244.81;4956449;28;20036;-67
2023/10/01 02:33:21;;;;;;;91.93;87.63;;;;;;;17.99;57.25;102236.03;4955901;28;20042;-67
2023/10/01 02:35:49;;;;;;;90.32;85.75;;;;;;;17.98;57.19;102236.31;4955877;28;20132;-67
2023/10/01 02:41:02;;;;;;;87.93;83.95;;;;;;;17.95;57.34;102249.41;4956343;28;20090;-67
2023/10/01 02:43:34;;;;;;;88.50;84.32;;;;;;;17.95;56.89;102251.31;4955491;28;20035;-67
2023/10/01 02:46:26;;;;;;;91.57;87.28;;;;;;;17.93;57.38;102245.28;4956312;28;20042;-67
2023/10/01 02:48:59;;;;;;;87.18;82.95;;;;;;;17.93;56.87;102245.28;4956050;28;20126;-67
2023/10/01 02:51:37;;;;;;;87.03;82.88;;;;;;;17.91;57.15;102248.25;4955676;28;20050;-67
2023/10/01 02:54:05;;;;;;;90.22;85.75;;;;;;;17.90;56.81;102248.53;4955899;28;20490;-67
2023/10/01 02:56:37;;;;;;;88.47;84.43;;;;;;;17.89;57.35;102246.84;4955725;28;20031;-67
2023/10/01 02:59:13;;;;;;;85.78;81.90;;;;;;;17.88;56.97;102242.47;4955914;28;20121;-67
2023/10/01 03:01:42;;;;;;;87.22;83.22;;;;;;;17.87;57.14;102243.56;4974583;28;20085;-69
2023/10/01 03:04:18;;;;;;;88.07;83.97;;;;;;;17.86;56.99;102233.72;4974512;28;20026;-68
2023/10/01 03:06:55;;;;;;;89.63;85.43;;;;;;;17.84;56.92;102231.25;4974902;28;20053;-68
2023/10/01 03:09:22;;;;;;;88.45;84.20;;;;;;;17.84;56.95;102239.44;4972592;28;20039;-68
2023/10/01 03:12:23;;;;;;;85.32;81.45;;;;;;;17.83;57.24;102237.78;4974592;28;20023;-69
2023/10/01 03:14:43;;;;;;;89.45;85.00;;;;;;;17.81;56.88;102236.38;4973825;28;20117;-70
2023/10/01 03:17:09;;;;;;;85.72;81.60;;;;;;;17.81;57.02;102239.13;4974314;28;20475;-70
2023/10/01 03:19:36;;;;;;;85.82;81.72;;;;;;;17.81;57.38;102239.13;4974407;28;20039;-69
2023/10/01 03:24:31;;;;;;;86.57;82.68;;;;;;;17.79;56.88;102238.50;4973915;28;20054;-69
2023/10/01 03:26:59;;;;;;;87.20;83.20;;;;;;;17.78;57.11;102237.69;4974020;28;20472;-68
2023/10/01 03:29:34;;;;;;;88.40;84.22;;;;;;;17.78;57.37;102242.34;4973806;28;20113;-68
2023/10/01 03:32:26;;;;;;;85.65;81.53;;;;;;;17.76;57.26;102239.84;4974349;28;20574;-68
2023/10/01 03:34:52;;;;;;;89.53;85.32;;;;;;;17.74;56.89;102228.38;4973175;28;20104;-69
2023/10/01 03:37:19;;;;;;;89.13;84.72;;;;;;;17.73;57.28;102232.16;4972709;28;20069;-68
2023/10/01 03:39:46;;;;;;;86.40;82.35;;;;;;;17.72;57.17;102231.34;4973464;28;20531;-69
2023/10/01 03:42:13;;;;;;;87.75;83.60;;;;;;;17.70;56.94;102225.28;4974134;28;20046;-69
2023/10/01 03:47:23;;;;;;;85.93;81.90;;;;;;;17.69;57.00;102234.59;4973622;28;20508;-68
2023/10/01 03:49:54;;;;;;;87.65;83.45;;;;;;;17.68;57.07;102219.25;4973907;28;20122;-68
2023/10/01 03:52:20;;;;;;;86.68;82.68;;;;;;;17.68;57.40;102223.91;4973442;28;20038;-67
2023/10/01 03:57:29;;;;;;;86.15;82.07;;;;;;;17.65;57.19;102221.69;4972210;28;20490;-70
2023/10/01 03:59:57;;;;;;;84.90;80.53;;;;;;;17.64;56.96;102225.47;4973839;28;20049;-69
2023/10/01 04:05:22;;;;;;;83.50;79.70;;;;;;;17.60;56.89;102216.97;4973376;28;20393;-68
2023/10/01 04:07:49;;;;;;;84.68;80.53;;;;;;;17.60;57.16;102216.16;4973449;28;20046;-68
2023/10/01 04:10:19;;;;;;;82.95;79.15;;;;;;;17.59;57.41;102223.53;4973372;28;20035;-69
2023/10/01 04:12:49;;;;;;;83.60;79.80;;;;;;;17.58;57.03;102215.56;4973555;28;20059;-69
2023/10/01 04:15:31;;;;;;;83.80;79.70;;;;;;;17.57;57.39;102217.47;4972686;28;20043;-69
2023/10/01 04:18:18;;;;;;;83.63;79.43;;;;;;;17.55;56.89;102216.09;4972395;28;20038;-70
2023/10/01 04:23:32;;;;;;;;;;;;;;;17.52;57.29;102220.97;4972726;28;20166;-67
2023/10/01 04:26:06;;;;;;;82.00;78.00;;;;;;;17.50;57.40;102214.09;4973639;28;20373;-70
2023/10/01 04:28:44;;;;;;;84.15;79.65;;;;;;;17.49;56.84;102213.28;4973136;28;20030;-68
2023/10/01 04:31:10;;;;;;;83.18;79.15;;;;;;;17.48;57.43;102214.34;4973356;28;20074;-70
2023/10/01 04:33:37;;;;;;;83.07;79.07;;;;;;;17.47;57.14;102207.25;4972894;28;20035;-69
2023/10/01 04:36:05;;;;;;;83.45;79.50;;;;;;;17.48;57.44;102210.81;4972965;28;20082;-68
2023/10/01 04:38:32;;;;;;;84.23;80.23;;;;;;;17.47;57.14;102209.16;4972111;28;20125;-68
2023/10/01 04:41:03;;;;;;;82.97;79.03;;;;;;;17.46;57.02;102207.50;4971935;28;20467;-68
2023/10/01 04:43:34;;;;;;;83.32;78.85;;;;;;;17.46;57.51;102212.94;4971564;28;20411;-69
2023/10/01 04:46:08;;;;;;;76.75;72.95;;;;;;;17.46;56.99;102213.81;4972395;28;20446;-69
2023/10/01 04:48:36;;;;;;;82.20;78.25;;;;;;;17.43;57.10;102211.56;4971661;28;20105;-68
2023/10/01 04:51:07;;;;;;;80.00;76.00;;;;;;;17.43;56.94;102217.00;4973582;28;20030;-70
2023/10/01 04:53:33;;;;;;;79.63;75.03;;;;;;;17.43;57.44;102218.94;4971601;28;20761;-67
2023/10/01 04:56:05;;;;;;;79.65;75.75;;;;;;;17.42;57.52;102225.47;4972866;28;20035;-70
2023/10/01 04:58:37;;;;;;;81.65;77.53;;;;;;;17.41;57.48;102226.53;4972579;28;20023;-68
2023/10/01 05:01:07;;;;;;;79.70;75.88;;;;;;;17.40;56.84;102223.00;4972705;28;20027;-69
2023/10/01 05:03:39;;;;;;;77.35;73.72;;;;;;;17.40;57.32;102214.78;4971571;28;20115;-69
2023/10/01 05:06:09;;;;;;;84.18;80.22;;;;;;;17.39;56.81;102215.06;4972571;28;20515;-68
2023/10/01 05:08:38;;;;;;;81.97;78.00;;;;;;;17.37;56.97;102207.13;4954734;28;20037;-67
2023/10/01 05:11:10;;;;;;;80.57;76.68;;;;;;;17.38;57.06;102218.84;4954081;28;20082;-68
2023/10/01 05:13:41;;;;;;;80.97;77.13;;;;;;;17.37;57.24;102218.03;4953656;28;20031;-68
2023/10/01 05:16:08;;;;;;;79.63;75.53;;;;;;;17.36;56.96;102221.00;4953451;28;20042;-69
2023/10/01 05:18:34;;;;;;;79.57;75.90;;;;;;;17.35;56.89;102228.38;4953121;28;20499;-68
2023/10/01 05:21:04;;;;;;;78.30;74.78;;;;;;;17.35;57.08;102230.28;4953415;28;20035;-68
2023/10/01 05:23:29;;;;;;;79.50;75.32;;;;;;;17.34;57.03;102237.66;4953088;28;20417;-68
2023/10/01 05:25:56;;;;;;;82.53;78.32;;;;;;;17.32;57.35;102231.63;4953560;28;20035;-68
2023/10/01 05:28:31;;;;;;;79.72;76.05;;;;;;;17.33;56.92;102237.91;4953919;28;20035;-68
2023/10/01 05:31:14;;;;;;;82.10;78.00;;;;;;;17.30;57.39;102234.59;4953295;28;20067;-69
2023/10/01 05:33:46;;;;;;;79.93;75.82;;;;;;;17.30;57.25;102244.69;4953605;28;20039;-70
2023/10/01 05:36:16;;;;;;;79.72;75.75;;;;;;;17.28;57.48;102236.75;4952752;28;20108;-69
2023/10/01 05:38:44;;;;;;;81.85;77.68;;;;;;;17.27;57.31;102246.03;4951735;28;20114;-68
2023/10/01 05:41:13;;;;;;;85.15;80.88;;;;;;;17.27;57.18;102245.22;4953345;28;20039;-68
2023/10/01 05:43:43;;;;;;;82.13;78.22;;;;;;;17.26;57.26;102246.28;4952984;28;20082;-69
2023/10/01 05:46:12;;;;;;;79.05;75.35;;;;;;;17.26;57.07;102243.53;4952080;28;20399;-69
2023/10/01 05:48:43;;;;;;;81.53;77.03;;;;;;;17.24;57.24;102234.78;4952714;28;20535;-70
2023/10/01 05:51:15;;;;;;;82.53;78.72;;;;;;;17.23;57.26;102228.47;4956799;28;20035;-68
2023/10/01 05:53:42;;;;;;;82.40;77.95;;;;;;;17.22;57.19;102226.84;4956337;28;20540;-68
2023/10/01 05:56:10;;;;;;;80.18;75.63;;;;;;;17.21;57.09;102227.94;4956957;28;20027;-68
2023/10/01 05:58:36;;;;;;;82.90;78.43;;;;;;;17.21;57.44;102227.06;4956419;28;20035;-69
2023/10/01 06:01:05;;;;;;;81.60;77.10;;;;;;;17.20;57.30;102233.63;4957106;28;20085;-68
2023/10/01 06:03:32;;;;;;;81.72;77.88;;;;;;;17.19;57.24;102232.00;4956901;28;20027;-68
2023/10/01 06:05:58;;;;;;;82.53;78.10;;;;;;;17.19;57.50;102230.09;4956680;28;20488;-67
2023/10/01 06:08:32;;;;;;;81.30;77.45;;;;;;;17.19;56.88;102237.44;4957033;28;20042;-69
2023/10/01 06:11:09;;;;;;;82.85;78.40;;;;;;;17.18;57.08;102236.59;4961836;28;20082;-70
2023/10/01 06:13:37;;;;;;;82.07;77.78;;;;;;;17.18;57.08;102235.78;4956516;28;20384;-68
2023/10/01 06:16:16;;;;;;;81.93;77.30;;;;;;;17.16;57.03;102244.25;4956376;28;20082;-69
2023/10/01 06:18:56;;;;;;;81.97;77.88;;;;;;;17.15;57.37;102242.56;4955110;28;20050;-68
2023/10/01 06:21:23;;;;;;;80.97;77.03;;;;;;;17.13;57.15;102228.34;4955289;28;20400;-66
2023/10/01 06:23:49;;;;;;;82.10;77.93;;;;;;;17.13;57.14;102230.25;4975793;28;20105;-68
2023/10/01 06:26:20;;;;;;;77.40;73.72;;;;;;;17.13;57.49;102249.34;4975524;28;20027;-69
2023/10/01 06:28:49;;;;;;;80.88;76.97;;;;;;;17.13;57.45;102246.63;4974138;28;20165;-69
2023/10/01 06:31:20;;;;;;;81.18;76.88;;;;;;;17.12;57.05;102239.53;4975266;28;20043;-68
2023/10/01 06:33:46;;;;;;;83.43;78.80;;;;;;;17.11;57.18;102227.78;4974628;28;20047;-68
2023/10/01 06:36:15;;;;;;;81.28;77.30;;;;;;;17.11;56.94;102235.13;4974915;28;20090;-70
2023/10/01 06:38:44;;;;;;;83.72;79.55;;;;;;;17.11;57.24;102235.13;4974770;28;20038;-69
2023/10/01 06:41:16;;;;;;;82.57;78.15;;;;;;;17.10;57.30;102237.03;4975250;28;20047;-68
2023/10/01 06:43:48;;;;;;;82.72;78.68;;;;;;;17.09;57.02;102235.38;4974471;28;20030;-68
2023/10/01 06:46:27;;;;;;;80.28;76.20;;;;;;;17.08;57.39;102242.75;4974789;28;20054;-68
2023/10/01 06:48:54;;;;;;;;;;;;;;;17.08;56.91;102233.72;4974372;28;20023;-67
2023/10/01 06:51:21;;;;;;;77.05;73.25;;;;;;;17.05;57.13;102226.03;4975004;28;19925;-68
2023/10/01 06:53:53;;;;;;;80.13;76.13;;;;;;;17.05;56.93;102226.03;4974712;28;20026;-68
2023/10/01 06:56:20;;;;;;;80.55;76.45;;;;;;;17.04;57.04;102221.66;4974850;28;20023;-69
2023/10/01 07:01:59;;;;;;;78.32;74.20;;;;;;;17.03;56.90;102220.00;4955563;28;20106;-67
2023/10/01 07:04:27;;;;;;;79.15;75.05;;;;;;;17.02;57.42;102224.63;4955351;28;20480;-69
2023/10/01 07:06:53;;;;;;;82.53;78.03;;;;;;;17.02;57.44;102227.38;4955578;28;20145;-71
2023/10/01 07:09:28;;;;;;;83.32;78.75;;;;;;;17.02;57.12;102238.28;4955563;28;20031;-68
2023/10/01 07:11:58;;;;;;;80.53;76.30;;;;;;;17.01;57.38;102225.72;4955422;28;20106;-68
2023/10/01 07:14:50;;;;;;;81.45;76.95;;;;;;;17.02;57.23;102230.09;4955882;28;20082;-69
2023/10/01 07:17:19;;;;;;;78.47;74.35;;;;;;;17.01;56.95;102233.91;4955878;28;20024;-71
2023/10/01 07:20:00;;;;;;;77.88;74.00;;;;;;;17.01;57.20;102233.91;4955008;28;20046;-69
2023/10/01 07:22:34;;;;;;;80.70;76.30;;;;;;;17.01;56.88;102233.91;4955356;28;20031;-69
2023/10/01 07:25:28;;;;;;;80.80;76.50;;;;;;;17.01;56.71;102235.78;4954993;28;20055;-69
2023/10/01 07:27:51;;;;;;;79.20;75.25;;;;;;;17.00;56.69;102245.06;4954589;28;20101;-69
2023/10/01 07:30:16;;;;;;;80.97;76.43;;;;;;;16.99;57.12;102243.44;4955097;28;20035;-68
2023/10/01 07:32:41;;;;;;;76.55;72.65;;;;;;;16.99;56.72;102246.16;4954500;29;20384;-71
2023/10/01 07:35:07;;;;;;;80.90;76.90;;;;;;;16.98;56.81;102237.13;4954791;28;20072;-69
2023/10/01 07:37:37;;;;;;;78.95;74.25;;;;;;;16.97;57.12;102249.13;4955122;28;20430;-68
2023/10/01 07:40:12;;;;;;;80.00;75.82;;;;;;;16.98;57.24;102247.22;4954872;28;20045;-67
2023/10/01 07:42:47;;;;;;;79.95;75.32;;;;;;;16.96;57.33;102249.34;4954999;28;20053;-68
2023/10/01 07:45:16;;;;;;;77.72;73.93;;;;;;;16.96;56.91;102249.34;4954646;28;20454;-70
2023/10/01 07:47:43;;;;;;;79.47;75.53;;;;;;;16.96;57.32;102252.09;4972162;28;20043;-68
2023/10/01 07:50:12;;;;;;;81.72;77.38;;;;;;;16.96;57.27;102255.66;4973408;28;20069;-70
2023/10/01 07:52:41;;;;;;;80.88;76.55;;;;;;;16.95;57.31;102251.25;4973761;28;20475;-70
2023/10/01 07:58:16;;;;;;;79.90;75.47;;;;;;;16.94;57.41;102255.09;4973460;28;20081;-68
2023/10/01 08:00:43;;;;;;;76.32;72.32;;;;;;;16.95;57.34;102248.53;4972679;28;20407;-67
2023/10/01 08:05:47;;;;;;;80.40;76.30;;;;;;;16.95;57.33;102239.53;4973186;28;20051;-69
2023/10/01 08:08:13;;;;;;;80.18;75.35;;;;;;;16.94;57.43;102251.53;4972517;28;20038;-68
2023/10/01 08:10:40;;;;;;;80.43;75.53;;;;;;;16.92;57.27;102249.03;4972679;28;20052;-68
2023/10/01 08:13:20;;;;;;;79.57;75.40;;;;;;;16.93;57.44;102255.31;4972376;28;20042;-70
2023/10/01 08:15:58;;;;;;;80.35;76.30;;;;;;;16.93;57.50;102253.41;4973535;28;20030;-69
2023/10/01 08:18:34;;;;;;;82.72;77.53;;;;;;;16.92;57.37;102259.97;4973379;28;20035;-70
2023/10/01 08:21:02;;;;;;;80.68;76.38;;;;;;;16.94;57.32;102267.91;4972899;28;20147;-68
2023/10/01 08:23:45;;;;;;;80.87;76.43;;;;;;;16.95;57.54;102258.63;4973210;28;20058;-68
2023/10/01 08:28:57;;;;;;;78.30;74.25;;;;;;;16.94;57.93;102273.38;4972930;28;20513;-69
2023/10/01 08:34:23;;;;;;;81.20;76.60;;;;;;;16.95;57.74;102275.00;4972744;28;20065;-68
2023/10/01 08:37:06;;;;;;;80.72;76.15;;;;;;;16.96;58.12;102266.59;4972778;28;20027;-67
2023/10/01 08:39:47;;;;;;;80.57;75.88;;;;;;;16.98;58.39;102263.59;4972240;28;20117;-68
2023/10/01 08:42:13;;;;;;;81.68;77.45;;;;;;;16.98;58.06;102256.22;4972488;28;20045;-68
2023/10/01 08:44:54;;;;;;;85.22;80.55;;;;;;;17.00;58.36;102256.00;4972960;28;20030;-69
2023/10/01 08:47:37;;;;;;;82.40;77.80;;;;;;;17.01;58.33;102258.47;4953849;28;20039;-68
2023/10/01 08:50:18;;;;;;;81.70;77.47;;;;;;;17.02;58.65;102260.13;4953744;28;20035;-67
2023/10/01 08:52:52;;;;;;;80.63;76.32;;;;;;;17.03;58.67;102260.94;4953983;28;20467;-68
2023/10/01 08:59:03;;;;;;;80.43;75.80;;;;;;;17.06;59.17;102255.84;4953584;28;20035;-68
2023/10/01 09:01:12;;;;;;;81.93;77.43;;;;;;;17.08;59.20;102256.41;4955340;28;20507;-69
2023/10/01 09:03:47;;;;;;;80.30;75.82;;;;;;;17.11;58.85;102254.22;4953644;28;20122;-68
2023/10/01 09:06:24;;;;;;;82.00;77.45;;;;;;;17.11;59.28;102257.81;4953032;28;20105;-69
2023/10/01 09:08:54;;;;;;;84.97;80.40;;;;;;;17.15;59.34;102263.59;4953956;28;20118;-67
2023/10/01 09:11:32;;;;;;;86.38;81.10;;;;;;;17.17;59.40;102258.72;4953406;28;20031;-68
2023/10/01 09:16:43;;;;;;;83.65;79.00;;;;;;;17.22;59.61;102256.88;4973161;28;20045;-68
2023/10/01 09:21:55;;;;;;;84.38;79.63;;;;;;;17.30;60.04;102242.78;4972614;28;20038;-68
2023/10/01 09:24:42;;;;;;;83.03;78.28;;;;;;;17.33;60.39;102237.91;4974114;28;20039;-69
2023/10/01 09:27:32;;;;;;;87.57;82.47;;;;;;;17.37;60.25;102241.81;4975916;28;20130;-67
2023/10/01 09:32:51;;;;;;;82.25;77.70;;;;;;;17.42;60.58;102242.69;4975611;28;20439;-68
2023/10/01 09:35:30;;;;;;;88.55;83.95;;;;;;;17.44;60.70;102245.19;4975162;28;20070;-68
2023/10/01 09:38:13;;;;;;;86.43;81.80;;;;;;;17.46;60.51;102240.28;4975044;28;20081;-70
2023/10/01 09:40:43;;;;;;;84.53;79.80;;;;;;;17.48;60.43;102230.75;4976069;28;20117;-68
2023/10/01 09:43:30;;;;;;;83.82;79.53;;;;;;;17.52;61.08;102244.75;4975566;28;20039;-68
2023/10/01 09:46:00;;;;;;;86.45;81.68;;;;;;;17.56;60.71;102245.88;4974023;28;20126;-68
2023/10/01 09:48:34;;;;;;;87.47;82.63;;;;;;;17.59;60.74;102244.53;4975051;28;20050;-69
2023/10/01 09:51:08;;;;;;;87.05;82.30;;;;;;;17.61;60.92;102237.75;4975971;28;20037;-68
2023/10/01 09:53:43;;;;;;;86.10;81.35;;;;;;;17.65;61.23;102224.41;4975818;28;20368;-66
2023/10/01 09:56:12;;;;;;;85.75;81.45;;;;;;;17.68;61.23;102224.72;4975465;28;20031;-68
2023/10/01 09:58:46;;;;;;;;;;;;;;;17.72;61.24;102230.50;4975398;28;20048;-68
2023/10/01 10:01:17;;;;;;;85.32;81.03;;;;;;;17.74;61.22;102236.56;4975460;28;20057;-68
2023/10/01 10:03:43;;;;;;;88.07;83.30;;;;;;;17.78;61.49;102234.94;4975011;28;20027;-68
2023/10/01 10:06:10;;;;;;;86.63;82.03;;;;;;;17.84;61.50;102244.06;4975036;28;20141;-68
2023/10/01 10:08:37;;;;;;;90.47;85.22;;;;;;;17.87;61.78;102236.19;4975702;28;20045;-68
2023/10/01 10:11:06;;;;;;;87.10;82.57;;;;;;;17.93;62.19;102237.91;4975442;28;20394;-68
2023/10/01 10:13:45;;;;;;;90.13;85.22;;;;;;;17.96;61.90;102225.63;4975605;28;20039;-68
2023/10/01 10:16:30;;;;;;;93.75;88.53;;;;;;;18.00;62.13;102228.69;4975024;28;20046;-68
2023/10/01 10:19:20;;;;;;;93.20;87.82;;;;;;;18.04;62.20;102227.06;4975587;28;20045;-69
2023/10/01 10:22:25;;;;;;;91.47;86.47;;;;;;;18.07;62.48;102221.94;4970943;28;20035;-68
2023/10/01 10:24:47;;;;;;;89.25;84.53;;;;;;;18.10;62.13;102226.88;4956548;28;20043;-67
2023/10/01 10:27:25;;;;;;;;;;;;;;;18.12;61.10;102215.69;4956545;28;20089;-67
2023/10/01 10:29:56;;;;;;;89.78;85.13;;;;;;;18.11;61.90;102212.13;4956555;28;19910;-68
2023/10/01 10:32:26;;;;;;;90.53;85.72;;;;;;;18.18;61.68;102206.44;4955581;28;20538;-68
2023/10/01 10:35:04;;;;;;;93.90;88.82;;;;;;;18.25;62.08;102215.28;4956098;28;20483;-68
2023/10/01 10:37:35;;;;;;;93.35;87.70;;;;;;;18.31;61.95;102216.16;4955594;28;20086;-68
2023/10/01 10:43:07;;;;;;;97.18;91.68;;;;;;;18.40;62.42;102211.06;4956199;28;20039;-67
2023/10/01 10:45:44;;;;;;;95.15;89.88;;;;;;;18.44;62.11;102209.44;4972977;28;20031;-67
2023/10/01 10:48:14;;;;;;;93.70;88.90;;;;;;;18.46;62.64;102201.78;4974346;28;20471;-67
2023/10/01 10:50:45;;;;;;;94.45;89.47;;;;;;;18.51;62.50;102208.13;4973204;28;20080;-68
2023/10/01 10:53:15;;;;;;;98.03;92.70;;;;;;;18.57;62.82;102209.84;4956078;28;20035;-68
2023/10/01 10:56:00;;;;;;;98.95;93.95;;;;;;;18.61;62.81;102207.38;4956114;28;20034;-67
2023/10/01 10:58:29;;;;;;;97.35;92.45;;;;;;;18.64;62.91;102201.38;4955446;28;20291;-68
2023/10/01 11:00:56;;;;;;;99.35;93.47;;;;;;;18.68;62.36;102205.25;4955315;28;20031;-67
2023/10/01 11:03:40;;;;;;;100.53;95.25;;;;;;;18.72;62.33;102205.56;4955689;28;20027;-68
2023/10/01 11:06:15;;;;;;;98.53;92.70;;;;;;;18.76;62.28;102209.47;4955452;28;20142;-69
2023/10/01 11:08:50;;;;;;;98.55;93.55;;;;;;;18.79;62.80;102208.94;4954396;28;20031;-68
2023/10/01 11:11:21;;;;;;;100.18;94.82;;;;;;;18.83;62.23;102198.28;4955035;28;20331;-67
2023/10/01 11:13:47;;;;;;;100.40;95.28;;;;;;;18.88;62.38;102190.13;4955659;28;20046;-68
2023/10/01 11:16:14;;;;;;;99.88;94.47;;;;;;;18.93;62.67;102184.69;4955711;28;20106;-68
2023/10/01 11:18:48;;;;;;;100.78;95.70;;;;;;;18.97;62.67;102185.78;4955495;28;20039;-69
2023/10/01 11:21:24;;;;;;;106.28;98.95;;;;;;;19.02;62.34;102188.53;4955187;28;20054;-68
2023/10/01 11:23:53;;;;;;;103.78;98.10;;;;;;;19.06;62.35;102183.38;4954207;28;20039;-69
2023/10/01 11:26:29;;;;;;;104.13;98.63;;;;;;;19.10;62.31;102179.84;4955092;28;20035;-68
2023/10/01 11:29:01;;;;;;;100.63;95.20;;;;;;;19.13;62.49;102186.72;4955351;28;20122;-68
2023/10/01 11:31:30;;;;;;;102.85;97.68;;;;;;;19.16;62.54;102186.19;4954591;28;20027;-69
2023/10/01 11:34:04;;;;;;;104.65;99.32;;;;;;;19.19;62.62;102183.72;4955022;28;20051;-69
2023/10/01 11:36:36;;;;;;;103.57;98.03;;;;;;;19.27;62.67;102187.06;4954861;28;20498;-68
2023/10/01 11:39:03;;;;;;;102.80;97.43;;;;;;;19.33;62.47;102180.53;4955209;28;20031;-68
2023/10/01 11:41:40;;;;;;;105.47;100.05;;;;;;;19.35;62.36;102192.88;4954595;28;20424;-68
2023/10/01 11:44:06;;;;;;;106.75;100.97;;;;;;;19.38;62.49;102186.84;4954625;28;20476;-67
2023/10/01 11:46:34;;;;;;;107.10;101.70;;;;;;;19.42;62.55;102182.47;4954429;28;20130;-67
2023/10/01 11:49:06;;;;;;;106.43;101.32;;;;;;;19.45;62.11;102175.63;4954979;28;20086;-70
2023/10/01 11:51:47;;;;;;;107.63;101.70;;;;;;;19.52;62.69;102178.13;4954358;28;20464;-68
2023/10/01 11:54:17;;;;;;;106.90;101.28;;;;;;;19.57;61.95;102170.75;4954961;28;20341;-67
2023/10/01 11:56:47;;;;;;;110.53;104.53;;;;;;;19.59;62.07;102157.59;4953128;28;20031;-69
2023/10/01 11:59:19;;;;;;;111.38;105.53;;;;;;;19.61;62.07;102152.66;4954592;28;20031;-69
2023/10/01 12:01:53;;;;;;;108.07;102.53;;;;;;;19.64;62.02;102148.56;4954540;28;20106;-67
2023/10/01 12:07:15;;;;;;;106.78;101.65;;;;;;;19.71;61.48;102146.44;4954825;28;20062;-67
2023/10/01 12:09:48;;;;;;;107.63;101.88;;;;;;;19.74;61.39;102140.41;4954237;28;20046;-68
2023/10/01 12:12:18;;;;;;;107.72;102.13;;;;;;;19.77;61.95;102139.84;4954255;28;20038;-68
2023/10/01 12:14:53;;;;;;;108.75;103.38;;;;;;;19.80;61.77;102143.97;4953835;28;20035;-67
2023/10/01 12:17:26;;;;;;;109.00;103.55;;;;;;;19.85;61.44;102143.97;4954475;28;20034;-68